Forside
METAR-TAF:

METAR-TAF

Lufthavne :

Morris Municipal Airport (James R. Washburn Field)

Morris, Illinois, USA

Breddekreds: 41-25-31N, længdekreds: 088-25-07W, højde: 178 m

Aktuelle vejr

Denne rapport blev lavet for 24 minutter siden, kl. 11:35 UTC
Vind 5 kt fra østsydøst
Temperatur 0°C
Fugtighed 100%
Tryk 1024 hPa
Sigt: 4.8 km
Spredte skyer i en højde af 100 ft
Brudte skyer i en højde af 3100 ft
Overskyet i en højde af 4500 ft
let regn

METAR: KC09 241135Z AUTO 12005KT 3SM -RA SCT001 BKN031 OVC045 00/00 A3024 RMK AO2 P0001 T00040002

Tid: 05:59 (11:59 UTC)


TAF: fraværende

Vejrobservationer og prognoser fra mere end 4000 lufthavne (METAR og TAF).

De gule og røde prikker repræsenterer de meteorologiske stationer.

Flyt musen over at se navnet på stationen.

Så klik over at se vejr observationer og prognoser.

At skifte det kort: Klik på de grønne knapper med et sort kors for at zoome ind; på den grønne knap med en bindestreg for at zoome ud; eller på de grønne pile for tilstødende kort.


METAR-TAF: